Weather at Tuzla Jegin Lug Sport Airfield

Public forecast

Using degrees Celsius for public forecast. Weather courtesy of forecast.io.

Closest aviation weather report (METAR) to Tuzla Jegin Lug Sport Airfield

Closest report is Tuzla International Airport, 3.6 nm (6.6 km) W.

2024/05/24 07:30 (retrieved 22 minutes ago)

LQTZ 240730Z VRB02KT 9999 FEW045 20/14 Q1019

Closest aviation forecast (TAF) to Tuzla Jegin Lug Sport Airfield

Closest forecast is Tuzla International Airport, 3.6 nm (6.6 km) W.

2024/05/24 06:06 (retrieved 2 hours ago)

TAF LQTZ 240500Z 2406/2506 VRB02KT CAVOK TX24/2412Z TN11/2504Z PROB40 TEMPO 2412/2418 VRB15KT 4000 TSRA FEW035CB BKN040 PROB40 TEMPO 2422/2506 2000 BR PROB30 TEMPO 2500/2506 0300 FG BKN002